createdAt,value
2019-03-13T00:04:51.835Z,4.33
2019-03-13T00:07:24.021Z,4.00
2019-03-13T00:09:56.227Z,4.03
2019-03-13T00:12:28.513Z,3.40
2019-03-13T00:15:00.724Z,4.97
2019-03-13T00:17:32.901Z,2.97
2019-03-13T00:23:41.267Z,3.03
2019-03-13T00:26:15.450Z,3.03
2019-03-13T00:28:47.433Z,3.37
2019-03-13T00:31:19.404Z,2.90
2019-03-13T00:33:51.326Z,2.70
2019-03-13T00:36:23.253Z,2.27
2019-03-13T00:38:55.172Z,2.73
2019-03-13T00:41:27.146Z,4.00
2019-03-13T00:43:59.112Z,2.40
2019-03-13T00:47:11.927Z,1.97
2019-03-13T00:49:43.845Z,2.07
2019-03-13T00:52:17.580Z,1.60
2019-03-13T00:54:49.534Z,1.80
2019-03-13T00:57:42.738Z,1.60
2019-03-13T01:00:22.827Z,1.80
2019-03-13T01:03:57.337Z,1.70
2019-03-13T01:06:34.918Z,1.60
2019-03-13T01:09:06.891Z,1.50
2019-03-13T01:11:38.904Z,1.60
2019-03-13T01:14:10.929Z,1.50
2019-03-13T01:16:42.900Z,1.50
2019-03-13T01:19:14.881Z,1.57
2019-03-13T01:21:46.843Z,1.50
2019-03-13T01:24:21.004Z,1.50
2019-03-13T01:27:00.548Z,1.57
2019-03-13T01:29:32.582Z,1.43
2019-03-13T01:32:22.735Z,1.80
2019-03-13T01:35:23.577Z,1.60
2019-03-13T01:37:55.640Z,1.33
2019-03-13T01:40:27.824Z,1.60
2019-03-13T01:43:01.988Z,1.33
2019-03-13T01:45:34.001Z,1.37
2019-03-13T01:48:08.060Z,1.53
2019-03-13T01:50:41.903Z,1.27
2019-03-13T01:53:13.920Z,1.77
2019-03-13T01:55:45.879Z,1.70
2019-03-13T01:58:20.626Z,1.50
2019-03-13T02:00:52.575Z,2.00
2019-03-13T02:03:24.531Z,1.60
2019-03-13T02:05:56.472Z,1.90
2019-03-13T02:08:29.850Z,1.50
2019-03-13T02:11:01.857Z,2.10
2019-03-13T02:13:40.893Z,2.03
2019-03-13T02:16:14.778Z,1.80
2019-03-13T02:18:49.214Z,2.20
2019-03-13T02:21:23.230Z,1.93
2019-03-13T02:23:57.576Z,1.80
2019-03-13T02:26:31.819Z,1.67
2019-03-13T02:29:05.088Z,2.07
2019-03-13T02:31:41.302Z,1.60
2019-03-13T02:34:16.205Z,1.70
2019-03-13T02:36:50.075Z,2.40
2019-03-13T02:39:22.122Z,1.70
2019-03-13T02:41:56.497Z,1.70
2019-03-13T02:44:30.574Z,1.83
2019-03-13T02:47:04.456Z,1.90
2019-03-13T02:49:39.885Z,1.43
2019-03-13T02:52:13.983Z,1.80
2019-03-13T02:54:45.948Z,1.87
2019-03-13T02:57:17.900Z,1.87
2019-03-13T02:59:51.701Z,1.80
2019-03-13T03:02:31.156Z,1.90
2019-03-13T03:05:04.022Z,2.00
2019-03-13T03:07:38.949Z,1.67
2019-03-13T03:10:11.215Z,1.80
2019-03-13T03:12:45.715Z,1.97
2019-03-13T03:15:17.757Z,1.67
2019-03-13T03:17:49.681Z,1.73
2019-03-13T03:20:24.757Z,1.57
2019-03-13T03:22:58.281Z,1.70
2019-03-13T03:25:30.248Z,1.63
2019-03-13T03:28:03.507Z,2.00
2019-03-13T03:30:35.511Z,2.07
2019-03-13T03:33:07.485Z,1.80
2019-03-13T03:35:39.488Z,2.07
2019-03-13T03:38:11.470Z,2.07
2019-03-13T03:40:43.456Z,1.93
2019-03-13T03:43:15.426Z,2.40
2019-03-13T03:45:47.482Z,2.33
2019-03-13T03:48:19.465Z,2.13
2019-03-13T03:50:51.430Z,2.13
2019-03-13T03:53:25.179Z,1.93
2019-03-13T03:55:57.208Z,1.77
2019-03-13T03:58:30.024Z,2.17
2019-03-13T04:01:06.398Z,2.00
2019-03-13T04:03:38.401Z,2.33
2019-03-13T04:06:10.404Z,2.20
2019-03-13T04:08:42.393Z,1.87
2019-03-13T04:11:14.381Z,1.87
2019-03-13T04:13:46.326Z,2.30
2019-03-13T04:16:18.322Z,2.30
2019-03-13T04:18:50.419Z,2.50
2019-03-13T04:21:22.373Z,1.93
2019-03-13T04:23:54.384Z,2.33
2019-03-13T04:26:27.490Z,1.93
2019-03-13T04:28:59.462Z,1.67
2019-03-13T04:31:31.409Z,1.93
2019-03-13T04:34:03.377Z,2.13
2019-03-13T04:36:35.334Z,2.20
2019-03-13T04:39:07.390Z,2.47
2019-03-13T04:41:41.407Z,2.60
2019-03-13T04:44:13.390Z,2.50
2019-03-13T04:46:45.316Z,1.90
2019-03-13T04:49:17.274Z,2.30
2019-03-13T04:51:51.040Z,2.30
2019-03-13T04:54:23.004Z,2.40
2019-03-13T04:56:55.000Z,2.17
2019-03-13T04:59:26.978Z,2.30
2019-03-13T05:01:58.932Z,2.00
2019-03-13T05:04:30.926Z,2.33
2019-03-13T05:07:02.881Z,2.40
2019-03-13T05:09:38.911Z,2.40
2019-03-13T05:12:10.918Z,2.10
2019-03-13T05:14:42.951Z,2.40
2019-03-13T05:17:14.892Z,2.33
2019-03-13T05:19:46.861Z,2.07
2019-03-13T05:22:18.839Z,2.30
2019-03-13T05:24:50.831Z,2.10
2019-03-13T05:27:22.796Z,2.53
2019-03-13T05:29:56.250Z,2.40
2019-03-13T05:32:28.225Z,2.37
2019-03-13T05:35:00.298Z,2.40
2019-03-13T05:37:32.452Z,2.03
2019-03-13T05:40:04.458Z,2.20
2019-03-13T05:42:36.431Z,2.07
2019-03-13T05:45:08.635Z,2.40
2019-03-13T05:47:40.615Z,2.30
2019-03-13T05:50:12.658Z,2.10
2019-03-13T05:52:44.619Z,2.10
2019-03-13T05:55:16.621Z,2.57
2019-03-13T05:57:48.581Z,2.53
2019-03-13T06:00:21.938Z,2.30
2019-03-13T06:02:53.897Z,2.30
2019-03-13T06:05:25.886Z,2.80
2019-03-13T06:07:57.846Z,2.33
2019-03-13T06:10:32.385Z,2.27
2019-03-13T06:13:04.348Z,2.57
2019-03-13T06:15:36.367Z,2.37
2019-03-13T06:18:09.736Z,2.30
2019-03-13T06:20:42.105Z,2.50
2019-03-13T06:23:14.053Z,2.17
2019-03-13T06:25:46.041Z,1.90
2019-03-13T06:28:18.049Z,2.20
2019-03-13T06:30:50.020Z,2.10
2019-03-13T06:33:22.009Z,2.90
2019-03-13T06:35:53.993Z,2.37
2019-03-13T06:38:25.956Z,2.43
2019-03-13T06:40:57.907Z,2.20
2019-03-13T06:43:29.925Z,2.00
2019-03-13T06:46:01.876Z,2.20
2019-03-13T06:48:33.879Z,2.03
2019-03-13T06:51:05.833Z,2.00
2019-03-13T06:53:37.801Z,2.03
2019-03-13T06:56:09.776Z,2.30
2019-03-13T06:58:48.108Z,2.23
2019-03-13T07:01:41.503Z,1.93
2019-03-13T07:04:31.783Z,2.00
2019-03-13T07:07:23.401Z,2.10
2019-03-13T07:10:03.400Z,2.03
2019-03-13T07:12:43.611Z,2.20
2019-03-13T07:15:35.979Z,1.80
2019-03-13T07:18:27.574Z,2.30
2019-03-13T07:21:19.182Z,2.10
2019-03-13T07:24:10.751Z,1.80
2019-03-13T07:27:02.279Z,1.80
2019-03-13T07:29:53.832Z,2.20
2019-03-13T07:32:45.350Z,1.93
2019-03-13T07:35:36.915Z,4.03
2019-03-13T07:38:28.449Z,2.47
2019-03-13T07:41:20.029Z,2.00
2019-03-13T07:44:11.597Z,2.03
2019-03-13T07:47:03.141Z,2.23
2019-03-13T07:49:44.657Z,1.60
2019-03-13T07:52:53.207Z,1.60
2019-03-13T07:55:44.766Z,1.97
2019-03-13T07:58:21.850Z,2.17
2019-03-13T08:01:13.391Z,2.17
2019-03-13T08:03:53.333Z,2.00
2019-03-13T08:07:06.139Z,1.83
2019-03-13T08:09:57.682Z,2.07
2019-03-13T08:12:49.224Z,1.97
2019-03-13T08:15:40.782Z,1.97
2019-03-13T08:18:32.316Z,2.20
2019-03-13T08:21:23.854Z,2.10
2019-03-13T08:24:15.377Z,2.10
2019-03-13T08:27:06.913Z,2.47
2019-03-13T08:29:58.426Z,1.93
2019-03-13T08:32:49.960Z,1.80
2019-03-13T08:35:41.527Z,2.00
2019-03-13T08:38:18.268Z,4.63
2019-03-13T08:44:08.887Z,3.13
2019-03-13T08:47:00.468Z,4.30
2019-03-13T08:49:52.012Z,2.30
2019-03-13T08:52:43.554Z,2.40
2019-03-13T08:55:35.106Z,3.20
2019-03-13T08:58:26.685Z,2.73
2019-03-13T09:01:18.251Z,1.90
2019-03-13T09:04:09.814Z,3.97
2019-03-13T09:07:01.385Z,1.60
2019-03-13T09:09:52.924Z,2.97
2019-03-13T09:12:44.513Z,2.57
2019-03-13T09:15:36.059Z,2.27
2019-03-13T09:18:27.638Z,2.10
2019-03-13T09:21:19.201Z,1.80
2019-03-13T09:23:57.707Z,3.97
2019-03-13T09:26:49.236Z,2.13
2019-03-13T09:29:40.792Z,1.93
2019-03-13T09:32:32.358Z,1.97
2019-03-13T09:35:45.504Z,2.30
2019-03-13T09:38:38.360Z,2.60
2019-03-13T09:41:30.555Z,2.00
2019-03-13T09:44:22.112Z,2.03
2019-03-13T09:47:13.627Z,2.83
2019-03-13T09:50:05.192Z,3.50
2019-03-13T09:52:56.749Z,2.03
2019-03-13T09:55:44.403Z,2.10
2019-03-13T09:58:35.931Z,2.47
2019-03-13T10:01:27.576Z,2.47
2019-03-13T10:04:19.131Z,1.70
2019-03-13T10:07:10.631Z,3.53
2019-03-13T10:10:02.172Z,2.60
2019-03-13T10:12:53.729Z,2.67
2019-03-13T10:15:45.315Z,2.20
2019-03-13T10:18:36.840Z,2.30
2019-03-13T10:21:28.451Z,2.57
2019-03-13T10:24:19.997Z,1.80
2019-03-13T10:27:11.543Z,2.27
2019-03-13T10:30:03.112Z,3.07
2019-03-13T10:32:54.682Z,3.20
2019-03-13T10:35:46.278Z,2.80
2019-03-13T10:38:25.265Z,2.40
2019-03-13T10:41:16.844Z,2.33
2019-03-13T10:43:56.450Z,3.63
2019-03-13T10:47:09.276Z,2.27
2019-03-13T10:50:00.823Z,2.10
2019-03-13T10:52:52.395Z,1.63
2019-03-13T10:55:43.911Z,2.93
2019-03-13T10:58:35.469Z,1.93
2019-03-13T11:01:27.122Z,2.30
2019-03-13T11:04:18.688Z,3.33
2019-03-13T11:07:10.273Z,2.87
2019-03-13T11:10:01.831Z,2.20
2019-03-13T11:12:53.417Z,1.90
2019-03-13T11:15:44.983Z,1.93
2019-03-13T11:18:32.669Z,1.90
2019-03-13T11:21:12.636Z,2.63
2019-03-13T11:26:58.922Z,2.20
2019-03-13T11:30:11.738Z,2.30
2019-03-13T11:32:59.662Z,2.23
2019-03-13T11:35:51.203Z,1.97
2019-03-13T11:38:42.734Z,2.10
2019-03-13T11:41:34.240Z,3.00
2019-03-13T11:44:25.802Z,3.37
2019-03-13T11:47:11.607Z,2.03
2019-03-13T11:50:03.160Z,3.70
2019-03-13T11:52:54.701Z,2.83
2019-03-13T11:55:46.307Z,4.10
2019-03-13T11:58:37.821Z,3.57
2019-03-13T12:01:29.365Z,2.17
2019-03-13T12:04:20.922Z,2.43
2019-03-13T12:07:02.546Z,3.77
2019-03-13T12:09:51.394Z,3.70
2019-03-13T12:12:42.945Z,2.93
2019-03-13T12:15:34.508Z,3.37
2019-03-13T12:18:26.036Z,2.20
2019-03-13T12:21:38.983Z,3.73
2019-03-13T12:24:20.388Z,3.70
2019-03-13T12:27:10.583Z,2.00
2019-03-13T12:33:38.536Z,2.73
2019-03-13T12:36:30.190Z,2.43
2019-03-13T12:39:21.739Z,3.07
2019-03-13T12:42:34.534Z,1.93
2019-03-13T12:45:28.748Z,3.57
2019-03-13T12:48:20.310Z,2.80
2019-03-13T12:51:11.891Z,2.90
2019-03-13T12:54:03.399Z,2.80
2019-03-13T12:56:54.953Z,2.80
2019-03-13T12:59:46.480Z,4.20
2019-03-13T13:02:38.051Z,4.50
2019-03-13T13:05:29.597Z,4.97
2019-03-13T13:08:21.217Z,4.27
2019-03-13T13:11:12.815Z,4.03
2019-03-13T13:14:04.358Z,4.50
2019-03-13T13:16:55.981Z,5.10
2019-03-13T13:19:27.987Z,3.43
2019-03-13T13:21:59.984Z,3.03
2019-03-13T13:24:32.015Z,2.00
2019-03-13T13:27:04.037Z,4.67
2019-03-13T13:29:36.119Z,3.13
2019-03-13T13:32:08.290Z,3.63
2019-03-13T13:34:40.269Z,2.67
2019-03-13T13:37:12.242Z,4.57
2019-03-13T13:39:44.330Z,2.77
2019-03-13T13:42:16.358Z,4.07
2019-03-13T13:44:48.414Z,2.90
2019-03-13T13:47:20.393Z,2.83
2019-03-13T13:49:59.729Z,2.47
2019-03-13T13:53:07.130Z,3.53
2019-03-13T13:55:39.093Z,4.73
2019-03-13T13:58:11.103Z,2.20
2019-03-13T14:00:43.085Z,4.87
2019-03-13T14:03:15.113Z,4.73
2019-03-13T14:05:48.902Z,4.87
2019-03-13T14:08:20.962Z,4.30
2019-03-13T14:10:52.977Z,2.90
2019-03-13T14:13:26.105Z,2.90
2019-03-13T14:15:58.357Z,2.67
2019-03-13T14:18:30.409Z,2.23
2019-03-13T14:21:02.424Z,2.93
2019-03-13T14:23:34.642Z,4.30
2019-03-13T14:26:06.687Z,2.47
2019-03-13T14:28:38.690Z,3.73
2019-03-13T14:31:10.835Z,2.97
2019-03-13T14:33:43.948Z,4.37
2019-03-13T14:36:15.938Z,3.40
2019-03-13T14:38:48.032Z,3.20
2019-03-13T14:41:20.095Z,3.63
2019-03-13T14:43:52.098Z,2.40
2019-03-13T14:46:24.109Z,3.23
2019-03-13T14:48:56.124Z,4.63
2019-03-13T14:51:28.147Z,5.20
2019-03-13T14:54:00.175Z,3.27
2019-03-13T14:56:32.209Z,4.33
2019-03-13T14:59:04.182Z,2.67
2019-03-13T15:01:36.219Z,5.77
2019-03-13T15:04:08.238Z,4.63
2019-03-13T15:06:40.231Z,5.10
2019-03-13T15:09:12.321Z,3.83
2019-03-13T15:11:44.392Z,4.23
2019-03-13T15:14:16.434Z,4.37
2019-03-13T15:16:48.459Z,4.60
2019-03-13T15:19:20.457Z,7.53
2019-03-13T15:21:52.499Z,2.33
2019-03-13T15:24:24.510Z,3.60
2019-03-13T15:26:56.541Z,3.60
2019-03-13T15:29:28.552Z,3.60
2019-03-13T15:32:00.538Z,4.40
2019-03-13T15:34:32.522Z,4.00
2019-03-13T15:37:04.569Z,4.43
2019-03-13T15:39:36.537Z,4.40
2019-03-13T15:42:08.609Z,2.83
2019-03-13T15:44:40.609Z,4.80
2019-03-13T15:47:12.624Z,3.87
2019-03-13T15:49:44.617Z,5.33
2019-03-13T15:52:16.679Z,3.20
2019-03-13T15:54:48.613Z,3.13
2019-03-13T15:57:20.640Z,4.00
2019-03-13T15:59:52.660Z,6.20
2019-03-13T16:02:24.645Z,4.43
2019-03-13T16:04:56.675Z,3.83
2019-03-13T16:07:28.659Z,2.97
2019-03-13T16:10:03.152Z,3.93
2019-03-13T16:12:34.510Z,6.77
2019-03-13T16:15:09.170Z,3.87
2019-03-13T16:17:41.151Z,2.77
2019-03-13T16:20:13.332Z,5.50
2019-03-13T16:22:48.593Z,4.97
2019-03-13T16:25:20.704Z,3.87
2019-03-13T16:27:52.735Z,5.67
2019-03-13T16:30:25.758Z,5.00
2019-03-13T16:32:57.787Z,3.33
2019-03-13T16:35:29.828Z,4.00
2019-03-13T16:38:01.792Z,6.10
2019-03-13T16:40:33.828Z,4.23
2019-03-13T16:43:05.807Z,5.20
2019-03-13T16:45:37.885Z,2.53
2019-03-13T16:48:09.912Z,6.93
2019-03-13T16:50:41.939Z,4.30
2019-03-13T16:53:13.947Z,4.00
2019-03-13T16:55:45.968Z,4.87
2019-03-13T16:58:17.949Z,5.27
2019-03-13T17:00:50.756Z,6.43
2019-03-13T17:03:22.879Z,4.37
2019-03-13T17:05:55.026Z,3.27
2019-03-13T17:08:27.008Z,2.77
2019-03-13T17:10:59.031Z,3.27
2019-03-13T17:13:31.004Z,3.53
2019-03-13T17:16:03.058Z,4.73
2019-03-13T17:18:35.123Z,3.57
2019-03-13T17:21:07.567Z,4.13
2019-03-13T17:23:39.620Z,4.03
2019-03-13T17:26:11.699Z,5.13
2019-03-13T17:28:43.875Z,5.67
2019-03-13T17:31:15.903Z,5.33
2019-03-13T17:33:47.913Z,5.57
2019-03-13T17:36:19.927Z,3.63
2019-03-13T17:38:51.995Z,4.37
2019-03-13T17:41:23.999Z,4.33
2019-03-13T17:43:56.070Z,3.73
2019-03-13T17:46:28.102Z,6.50
2019-03-13T17:49:00.124Z,4.63
2019-03-13T17:51:32.119Z,4.13
2019-03-13T17:54:04.139Z,5.07
2019-03-13T17:56:36.205Z,2.67
2019-03-13T17:59:08.252Z,3.13
2019-03-13T18:01:40.257Z,3.57
2019-03-13T18:04:12.444Z,3.17
2019-03-13T18:06:44.487Z,4.43
2019-03-13T18:09:16.583Z,4.70
2019-03-13T18:11:48.597Z,4.07
2019-03-13T18:14:20.709Z,3.90
2019-03-13T18:16:52.794Z,2.93
2019-03-13T18:19:24.905Z,3.80
2019-03-13T18:21:56.929Z,4.00
2019-03-13T18:24:29.017Z,4.13
2019-03-13T18:27:00.986Z,4.67
2019-03-13T18:29:33.024Z,2.83
2019-03-13T18:32:05.116Z,5.27
2019-03-13T18:34:37.188Z,4.13
2019-03-13T18:37:09.206Z,6.63
2019-03-13T18:39:41.314Z,4.33
2019-03-13T18:42:13.341Z,3.67
2019-03-13T18:44:45.396Z,3.80
2019-03-13T18:47:17.499Z,4.63
2019-03-13T18:49:49.529Z,5.53
2019-03-13T18:52:21.538Z,5.33
2019-03-13T18:54:53.606Z,4.90
2019-03-13T18:57:25.602Z,5.13
2019-03-13T18:59:57.632Z,3.73
2019-03-13T19:02:29.689Z,6.97
2019-03-13T19:05:01.687Z,5.00
2019-03-13T19:07:33.729Z,5.77
2019-03-13T19:10:06.436Z,6.70
2019-03-13T19:12:38.499Z,7.57
2019-03-13T19:15:15.252Z,4.60
2019-03-13T19:17:47.696Z,3.27
2019-03-13T19:20:20.464Z,5.83
2019-03-13T19:22:52.808Z,3.17
2019-03-13T19:25:25.007Z,4.17
2019-03-13T19:27:57.143Z,6.33
2019-03-13T19:30:29.616Z,4.80
2019-03-13T19:33:02.183Z,4.23
2019-03-13T19:35:34.267Z,3.20
2019-03-13T19:38:06.669Z,7.57
2019-03-13T19:40:39.129Z,5.00
2019-03-13T19:43:11.197Z,6.80
2019-03-13T19:45:43.356Z,4.70
2019-03-13T19:48:15.431Z,4.50
2019-03-13T19:50:47.454Z,5.57
2019-03-13T19:53:19.692Z,8.10
2019-03-13T19:55:51.843Z,7.03
2019-03-13T19:58:23.924Z,6.37
2019-03-13T20:00:55.959Z,5.83
2019-03-13T20:03:28.138Z,3.50
2019-03-13T20:06:00.143Z,6.37
2019-03-13T20:08:32.238Z,6.43
2019-03-13T20:11:04.227Z,3.97
2019-03-13T20:13:36.356Z,3.77
2019-03-13T20:16:08.468Z,2.70
2019-03-13T20:18:40.585Z,3.90
2019-03-13T20:21:12.760Z,5.03
2019-03-13T20:23:44.865Z,2.97
2019-03-13T20:26:16.914Z,2.73
2019-03-13T20:28:48.942Z,3.03
2019-03-13T20:31:20.951Z,4.13
2019-03-13T20:33:53.127Z,4.67
2019-03-13T20:36:25.148Z,5.53
2019-03-13T20:38:57.207Z,4.27
2019-03-13T20:41:29.227Z,4.90
2019-03-13T20:44:01.290Z,5.37
2019-03-13T20:46:33.317Z,4.67
2019-03-13T20:49:05.407Z,5.60
2019-03-13T20:51:37.471Z,2.93
2019-03-13T20:54:09.567Z,4.80
2019-03-13T20:57:22.471Z,2.97
2019-03-13T20:59:54.527Z,3.83
2019-03-13T21:02:26.545Z,3.20
2019-03-13T21:04:58.567Z,6.03
2019-03-13T21:07:30.585Z,3.63
2019-03-13T21:10:02.871Z,4.93
2019-03-13T21:12:34.852Z,3.93
2019-03-13T21:18:07.394Z,3.07
2019-03-13T21:20:39.452Z,2.93
2019-03-13T21:23:11.464Z,2.73
2019-03-13T21:25:43.495Z,5.23
2019-03-13T21:28:15.484Z,4.87
2019-03-13T21:30:47.503Z,2.90
2019-03-13T21:33:19.626Z,3.70
2019-03-13T21:35:51.692Z,3.23
2019-03-13T21:41:36.793Z,3.40
2019-03-13T21:47:21.868Z,3.27
2019-03-13T21:49:53.942Z,3.27
2019-03-13T21:52:26.024Z,4.50
2019-03-13T21:55:17.616Z,2.70
2019-03-13T21:58:09.154Z,3.10
2019-03-13T22:00:41.194Z,2.50
2019-03-13T22:03:13.236Z,3.77
2019-03-13T22:08:58.360Z,3.50
2019-03-13T22:11:30.354Z,4.37
2019-03-13T22:14:02.425Z,3.10
2019-03-13T22:16:34.485Z,3.30
2019-03-13T22:19:06.524Z,3.03
2019-03-13T22:24:51.564Z,3.20
2019-03-13T22:27:23.578Z,3.30
2019-03-13T22:29:55.677Z,3.33
2019-03-13T22:35:27.274Z,3.80
2019-03-13T22:37:59.257Z,3.90
2019-03-13T22:40:31.281Z,3.17
2019-03-13T22:43:03.536Z,3.30
2019-03-13T22:48:57.643Z,4.73
2019-03-13T22:51:22.537Z,3.60
2019-03-13T22:53:54.569Z,4.53
2019-03-13T22:56:26.590Z,3.00
2019-03-13T22:58:58.589Z,3.33
2019-03-13T23:01:30.882Z,4.93
2019-03-13T23:04:02.948Z,5.07
2019-03-13T23:06:34.927Z,5.27
2019-03-13T23:09:10.563Z,5.83
2019-03-13T23:11:42.563Z,3.83
2019-03-13T23:14:15.646Z,3.30
2019-03-13T23:16:48.782Z,4.20
2019-03-13T23:19:20.815Z,5.10
2019-03-13T23:21:52.849Z,4.57
2019-03-13T23:24:24.873Z,4.23
2019-03-13T23:26:57.051Z,5.83
2019-03-13T23:29:29.006Z,5.03
2019-03-13T23:32:01.017Z,3.93
2019-03-13T23:34:33.523Z,4.07
2019-03-13T23:37:05.721Z,3.30
2019-03-13T23:39:37.689Z,3.53
2019-03-13T23:42:09.799Z,5.10
2019-03-13T23:44:41.752Z,5.13
2019-03-13T23:47:13.744Z,3.77
2019-03-13T23:49:45.706Z,5.73
2019-03-13T23:52:17.702Z,5.60
2019-03-13T23:54:49.690Z,5.27
2019-03-13T23:57:21.669Z,4.73
2019-03-13T23:59:53.620Z,5.53
